createdAt,value
2017-02-23T00:00:02.179Z,73162
2017-02-23T00:00:11.997Z,73181
2017-02-23T00:00:21.828Z,73200
2017-02-23T00:00:32.385Z,73195
2017-02-23T00:00:42.918Z,73173
2017-02-23T00:00:53.092Z,73175
2017-02-23T00:01:03.641Z,73182
2017-02-23T00:01:13.795Z,73196
2017-02-23T00:01:24.361Z,73194
2017-02-23T00:01:34.899Z,73191
2017-02-23T00:01:45.434Z,73183
2017-02-23T00:01:55.585Z,73175
2017-02-23T00:02:06.140Z,73177
2017-02-23T00:02:16.703Z,73177
2017-02-23T00:02:27.267Z,73157
2017-02-23T00:02:37.823Z,73158
2017-02-23T00:02:47.636Z,73151
2017-02-23T00:02:58.190Z,73147
2017-02-23T00:03:08.758Z,73166
2017-02-23T00:03:18.963Z,73158
2017-02-23T00:03:29.514Z,73164
2017-02-23T00:03:40.060Z,73149
2017-02-23T00:03:50.218Z,73158
2017-02-23T00:04:00.787Z,73161
2017-02-23T00:04:11.342Z,73163
2017-02-23T00:04:21.918Z,73175
2017-02-23T00:04:32.453Z,73185
2017-02-23T00:04:43.012Z,73177
2017-02-23T00:04:53.192Z,73185
2017-02-23T00:05:03.752Z,73187
2017-02-23T00:05:13.940Z,73163
2017-02-23T00:05:23.742Z,73151
2017-02-23T00:05:34.300Z,73131
2017-02-23T00:05:44.878Z,73126
2017-02-23T00:05:55.451Z,73127
2017-02-23T00:06:05.636Z,73135
2017-02-23T00:06:15.847Z,73139
2017-02-23T00:06:26.393Z,73159
2017-02-23T00:06:36.930Z,73163
2017-02-23T00:06:47.468Z,73161
2017-02-23T00:06:57.999Z,73171
2017-02-23T00:07:08.184Z,73174
2017-02-23T00:07:18.372Z,73170
2017-02-23T00:07:28.915Z,73175
2017-02-23T00:07:39.456Z,73175
2017-02-23T00:07:49.616Z,73172
2017-02-23T00:08:00.168Z,73164
2017-02-23T00:08:10.348Z,73164
2017-02-23T00:08:20.518Z,73153
2017-02-23T00:08:31.083Z,73133
2017-02-23T00:08:41.611Z,73159
2017-02-23T00:08:51.804Z,73158
2017-02-23T00:09:02.345Z,73157
2017-02-23T00:09:12.533Z,73164
2017-02-23T00:09:22.374Z,73166
2017-02-23T00:09:32.903Z,73171
2017-02-23T00:09:43.450Z,73182
2017-02-23T00:09:53.643Z,73177
2017-02-23T00:10:04.198Z,73150
2017-02-23T00:10:14.373Z,73155
2017-02-23T00:10:24.903Z,73168
2017-02-23T00:10:35.426Z,73172
2017-02-23T00:10:45.968Z,73176
2017-02-23T00:10:56.508Z,73178
2017-02-23T00:11:07.081Z,73180
2017-02-23T00:11:17.640Z,73170
2017-02-23T00:11:28.171Z,73170
2017-02-23T00:11:38.749Z,73170
2017-02-23T00:11:49.282Z,73170
2017-02-23T00:11:59.809Z,73159
2017-02-23T00:12:10.336Z,73173
2017-02-23T00:12:20.514Z,73151
2017-02-23T00:12:31.071Z,73148
2017-02-23T00:12:41.607Z,73112
2017-02-23T00:12:51.796Z,73101
2017-02-23T00:13:02.382Z,73095
2017-02-23T00:13:12.182Z,73128
2017-02-23T00:13:22.369Z,73154
2017-02-23T00:13:32.569Z,73175
2017-02-23T00:13:42.724Z,73158
2017-02-23T00:13:53.278Z,73136
2017-02-23T00:14:03.798Z,73151
2017-02-23T00:14:14.349Z,73137
2017-02-23T00:14:24.915Z,73139
2017-02-23T00:14:35.480Z,73141
2017-02-23T00:14:46.019Z,73155
2017-02-23T00:14:56.575Z,73168
2017-02-23T00:15:07.137Z,73185
2017-02-23T00:15:17.333Z,73175
2017-02-23T00:15:27.883Z,73162
2017-02-23T00:15:38.426Z,73153
2017-02-23T00:15:48.973Z,73150
2017-02-23T00:15:59.505Z,73155
2017-02-23T00:16:09.674Z,73159
2017-02-23T00:16:19.851Z,73169
2017-02-23T00:16:30.396Z,73166
2017-02-23T00:16:40.944Z,73168
2017-02-23T00:16:51.481Z,73181
2017-02-23T00:17:02.053Z,73187
2017-02-23T00:17:12.231Z,73143
2017-02-23T00:17:22.421Z,73135
2017-02-23T00:17:32.972Z,73173
2017-02-23T00:17:43.523Z,73185
2017-02-23T00:17:54.110Z,73170
2017-02-23T00:18:04.656Z,73166
2017-02-23T00:18:14.478Z,73154
2017-02-23T00:18:25.035Z,73153
2017-02-23T00:18:35.597Z,73158
2017-02-23T00:18:45.791Z,73161
2017-02-23T00:18:56.390Z,73156
2017-02-23T00:19:06.928Z,73159
2017-02-23T00:19:17.449Z,73153
2017-02-23T00:19:27.999Z,73150
2017-02-23T00:19:38.567Z,73159
2017-02-23T00:19:49.085Z,73169
2017-02-23T00:19:59.665Z,73169
2017-02-23T00:20:10.200Z,73169
2017-02-23T00:20:20.395Z,73165
2017-02-23T00:20:30.948Z,73155
2017-02-23T00:20:41.485Z,73147
2017-02-23T00:20:51.636Z,73143
2017-02-23T00:21:02.185Z,73156
2017-02-23T00:21:12.362Z,73153
2017-02-23T00:21:22.935Z,73154
2017-02-23T00:21:33.520Z,73166
2017-02-23T00:21:44.066Z,73153
2017-02-23T00:21:54.627Z,73145
2017-02-23T00:22:05.212Z,73137
2017-02-23T00:22:15.004Z,73124
2017-02-23T00:22:25.547Z,73119
2017-02-23T00:22:36.101Z,73135
2017-02-23T00:22:46.633Z,73145
2017-02-23T00:22:56.817Z,73157
2017-02-23T00:23:07.377Z,73164
2017-02-23T00:23:17.537Z,73170
2017-02-23T00:23:28.113Z,73175
2017-02-23T00:23:38.656Z,73171
2017-02-23T00:23:49.247Z,73167
2017-02-23T00:23:59.799Z,73162
2017-02-23T00:24:10.339Z,73172
2017-02-23T00:24:20.919Z,73149
2017-02-23T00:24:31.493Z,73137
2017-02-23T00:24:42.032Z,73156
2017-02-23T00:24:52.575Z,73171
2017-02-23T00:25:03.111Z,73185
2017-02-23T00:25:13.655Z,73196
2017-02-23T00:25:24.188Z,73200
2017-02-23T00:25:34.779Z,73195
2017-02-23T00:25:45.340Z,73191
2017-02-23T00:25:55.507Z,73178
2017-02-23T00:26:06.055Z,73157
2017-02-23T00:26:16.616Z,73122
2017-02-23T00:26:27.165Z,73099
2017-02-23T00:26:37.717Z,73162
2017-02-23T00:26:47.555Z,73192
2017-02-23T00:26:58.106Z,73149
2017-02-23T00:27:08.649Z,73143
2017-02-23T00:27:19.225Z,73154
2017-02-23T00:27:29.759Z,73161
2017-02-23T00:27:40.311Z,73141
2017-02-23T00:27:50.485Z,73142
2017-02-23T00:28:00.684Z,73127
2017-02-23T00:28:10.857Z,73134
2017-02-23T00:28:21.403Z,73130
2017-02-23T00:28:31.932Z,73129
2017-02-23T00:28:42.511Z,73114
2017-02-23T00:28:53.068Z,73102
2017-02-23T00:29:03.606Z,73097
2017-02-23T00:29:14.147Z,73110
2017-02-23T00:29:24.702Z,73132
2017-02-23T00:29:35.238Z,73136
2017-02-23T00:29:45.781Z,73136
2017-02-23T00:29:56.323Z,73133
2017-02-23T00:30:06.872Z,73147
2017-02-23T00:30:16.676Z,73150
2017-02-23T00:30:26.864Z,73154
2017-02-23T00:30:37.424Z,73163
2017-02-23T00:30:47.988Z,73174
2017-02-23T00:30:58.516Z,73168
2017-02-23T00:31:09.026Z,73167
2017-02-23T00:31:19.195Z,73164
2017-02-23T00:31:29.746Z,73163
2017-02-23T00:31:40.294Z,73154
2017-02-23T00:31:50.496Z,73166
2017-02-23T00:32:01.063Z,73173
2017-02-23T00:32:11.606Z,73166
2017-02-23T00:32:22.131Z,73162
2017-02-23T00:32:32.684Z,73156
2017-02-23T00:32:43.240Z,73162
2017-02-23T00:32:53.756Z,73166
2017-02-23T00:33:04.290Z,73164
2017-02-23T00:33:14.463Z,73174
2017-02-23T00:33:24.994Z,73176
2017-02-23T00:33:35.544Z,73175
2017-02-23T00:33:45.711Z,73178
2017-02-23T00:33:56.253Z,73158
2017-02-23T00:34:06.437Z,73164
2017-02-23T00:34:16.999Z,73170
2017-02-23T00:34:27.186Z,73165
2017-02-23T00:34:37.729Z,73161
2017-02-23T00:34:48.265Z,73161
2017-02-23T00:34:58.777Z,73166
2017-02-23T00:35:08.920Z,73162
2017-02-23T00:35:19.139Z,73136
2017-02-23T00:35:29.720Z,73110
2017-02-23T00:35:40.265Z,73126
2017-02-23T00:35:50.470Z,73140
2017-02-23T00:36:00.272Z,73130
2017-02-23T00:36:10.444Z,73124
2017-02-23T00:36:20.989Z,73139
2017-02-23T00:36:31.547Z,73160
2017-02-23T00:36:42.068Z,73148
2017-02-23T00:36:52.240Z,73157
2017-02-23T00:37:02.774Z,73148
2017-02-23T00:37:12.951Z,73144
2017-02-23T00:37:22.734Z,73142
2017-02-23T00:37:33.344Z,73130
2017-02-23T00:37:43.914Z,73114
2017-02-23T00:37:54.486Z,73127
2017-02-23T00:38:04.671Z,73137
2017-02-23T00:38:15.218Z,73138
2017-02-23T00:38:25.750Z,73137
2017-02-23T00:38:35.910Z,73125
2017-02-23T00:38:46.524Z,73146
2017-02-23T00:38:56.712Z,73153
2017-02-23T00:39:07.271Z,73159
2017-02-23T00:39:17.811Z,73141
2017-02-23T00:39:28.367Z,73168
2017-02-23T00:39:38.911Z,73151
2017-02-23T00:39:49.453Z,73153
2017-02-23T00:39:59.992Z,73153
2017-02-23T00:40:10.188Z,73162
2017-02-23T00:40:20.734Z,73173
2017-02-23T00:40:31.330Z,73152
2017-02-23T00:40:41.885Z,73166
2017-02-23T00:40:52.449Z,73171
2017-02-23T00:41:03.008Z,73154
2017-02-23T00:41:13.542Z,73157
2017-02-23T00:41:24.072Z,73163
2017-02-23T00:41:34.604Z,73167
2017-02-23T00:41:44.775Z,73158
2017-02-23T00:41:55.323Z,73141
2017-02-23T00:42:05.905Z,73127
2017-02-23T00:42:15.718Z,73127
2017-02-23T00:42:26.300Z,73142
2017-02-23T00:42:36.835Z,73151
2017-02-23T00:42:47.357Z,73157
2017-02-23T00:42:57.958Z,73163
2017-02-23T00:43:08.532Z,73162
2017-02-23T00:43:18.339Z,73152
2017-02-23T00:43:28.509Z,73154
2017-02-23T00:43:39.035Z,73174
2017-02-23T00:43:49.588Z,73177
2017-02-23T00:44:00.134Z,73185
2017-02-23T00:44:10.709Z,73181
2017-02-23T00:44:21.246Z,73163
2017-02-23T00:44:31.808Z,73162
2017-02-23T00:44:42.373Z,73140
2017-02-23T00:44:52.911Z,73135
2017-02-23T00:45:03.480Z,73126
2017-02-23T00:45:14.036Z,73130
2017-02-23T00:45:24.574Z,73158
2017-02-23T00:45:35.132Z,73160
2017-02-23T00:45:45.288Z,73152
2017-02-23T00:45:55.486Z,73150
2017-02-23T00:46:06.048Z,73160
2017-02-23T00:46:16.209Z,73158
2017-02-23T00:46:26.773Z,73154
2017-02-23T00:46:37.346Z,73148
2017-02-23T00:46:47.888Z,73130
2017-02-23T00:46:58.073Z,73142
2017-02-23T00:47:08.259Z,73136
2017-02-23T00:47:18.420Z,73166
2017-02-23T00:47:28.991Z,73174
2017-02-23T00:47:39.548Z,73159
2017-02-23T00:47:49.688Z,73144
2017-02-23T00:48:00.271Z,73132
2017-02-23T00:48:10.450Z,73140
2017-02-23T00:48:21.007Z,73124
2017-02-23T00:48:31.573Z,73125
2017-02-23T00:48:42.107Z,73125
2017-02-23T00:48:52.284Z,73127
2017-02-23T00:49:02.836Z,73126
2017-02-23T00:49:13.021Z,73130
2017-02-23T00:49:23.185Z,73155
2017-02-23T00:49:33.730Z,73144
2017-02-23T00:49:44.257Z,73115
2017-02-23T00:49:54.800Z,73121
2017-02-23T00:50:05.345Z,73135
2017-02-23T00:50:15.891Z,73157
2017-02-23T00:50:26.452Z,73154
2017-02-23T00:50:36.991Z,73145
2017-02-23T00:50:46.837Z,73144
2017-02-23T00:50:57.372Z,73156
2017-02-23T00:51:07.940Z,73169
2017-02-23T00:51:18.487Z,73154
2017-02-23T00:51:29.067Z,73147
2017-02-23T00:51:39.600Z,73130
2017-02-23T00:51:49.777Z,73147
2017-02-23T00:52:00.349Z,73152
2017-02-23T00:52:10.515Z,73160
2017-02-23T00:52:20.679Z,73165
2017-02-23T00:52:31.223Z,73167
2017-02-23T00:52:41.794Z,73175
2017-02-23T00:52:52.377Z,73178
2017-02-23T00:53:02.915Z,73160
2017-02-23T00:53:13.454Z,73169
2017-02-23T00:53:23.635Z,73183
2017-02-23T00:53:34.231Z,73185
2017-02-23T00:53:44.789Z,73185
2017-02-23T00:53:55.347Z,73172
2017-02-23T00:54:05.578Z,73164
2017-02-23T00:54:15.399Z,73165
2017-02-23T00:54:25.968Z,73169
2017-02-23T00:54:36.522Z,73155
2017-02-23T00:54:46.715Z,73131
2017-02-23T00:54:57.235Z,73130
2017-02-23T00:55:07.789Z,73140
2017-02-23T00:55:18.375Z,73141
2017-02-23T00:55:28.918Z,73129
2017-02-23T00:55:39.487Z,73112
2017-02-23T00:55:50.021Z,73114
2017-02-23T00:56:00.609Z,73112
2017-02-23T00:56:10.783Z,73133
2017-02-23T00:56:20.957Z,73149
2017-02-23T00:56:31.499Z,73131
2017-02-23T00:56:42.073Z,73126
2017-02-23T00:56:52.247Z,73133
2017-02-23T00:57:02.785Z,73141
2017-02-23T00:57:12.982Z,73130
2017-02-23T00:57:23.187Z,73113
2017-02-23T00:57:33.790Z,73121
2017-02-23T00:57:44.333Z,73130
2017-02-23T00:57:54.875Z,73135
2017-02-23T00:58:05.409Z,73136
2017-02-23T00:58:15.185Z,73124
2017-02-23T00:58:25.766Z,73132
2017-02-23T00:58:36.325Z,73143
2017-02-23T00:58:46.856Z,73131
2017-02-23T00:58:57.423Z,73145
2017-02-23T00:59:07.980Z,73153
2017-02-23T00:59:18.163Z,73157
2017-02-23T00:59:28.699Z,73149
2017-02-23T00:59:39.217Z,73131
2017-02-23T00:59:49.762Z,73157
2017-02-23T01:00:00.317Z,73167
2017-02-23T01:00:10.890Z,73152
2017-02-23T01:00:20.688Z,73128
2017-02-23T01:00:31.237Z,73145
2017-02-23T01:00:41.803Z,73159
2017-02-23T01:00:52.357Z,73161
2017-02-23T01:01:02.922Z,73145
2017-02-23T01:01:13.103Z,73136
2017-02-23T01:01:23.280Z,73139
2017-02-23T01:01:33.809Z,73121
2017-02-23T01:01:44.345Z,73124
2017-02-23T01:01:54.878Z,73127
2017-02-23T01:02:05.418Z,73133
2017-02-23T01:02:15.592Z,73136
2017-02-23T01:02:26.144Z,73149
2017-02-23T01:02:36.716Z,73157
2017-02-23T01:02:47.260Z,73153
2017-02-23T01:02:57.812Z,73157
2017-02-23T01:03:08.363Z,73154
2017-02-23T01:03:18.923Z,73158
2017-02-23T01:03:29.463Z,73153
2017-02-23T01:03:39.999Z,73143
2017-02-23T01:03:49.831Z,73137
2017-02-23T01:04:00.369Z,73120
2017-02-23T01:04:10.153Z,73149
2017-02-23T01:04:20.317Z,73164
2017-02-23T01:04:30.864Z,73180
2017-02-23T01:04:41.396Z,73158
2017-02-23T01:04:51.586Z,73118
2017-02-23T01:05:02.134Z,73121
2017-02-23T01:05:12.320Z,73141
2017-02-23T01:05:22.535Z,73153
2017-02-23T01:05:33.072Z,73155
2017-02-23T01:05:43.634Z,73165
2017-02-23T01:05:54.186Z,73167
2017-02-23T01:06:04.762Z,73172
2017-02-23T01:06:14.948Z,73173
2017-02-23T01:06:25.487Z,73165
2017-02-23T01:06:35.678Z,73152
2017-02-23T01:06:45.852Z,73132
2017-02-23T01:06:56.415Z,73141
2017-02-23T01:07:06.962Z,73156
2017-02-23T01:07:17.157Z,73154
2017-02-23T01:07:27.692Z,73144
2017-02-23T01:07:38.242Z,73143
2017-02-23T01:07:48.417Z,73113
2017-02-23T01:07:58.946Z,73113
2017-02-23T01:08:09.129Z,73121
2017-02-23T01:08:19.301Z,73121
2017-02-23T01:08:29.886Z,73125
2017-02-23T01:08:40.438Z,73131
2017-02-23T01:08:50.622Z,73117
2017-02-23T01:09:01.173Z,73118
2017-02-23T01:09:11.730Z,73115
2017-02-23T01:09:22.280Z,73128
2017-02-23T01:09:32.829Z,73144
2017-02-23T01:09:43.008Z,73145
2017-02-23T01:09:53.179Z,73137
2017-02-23T01:10:03.742Z,73111
2017-02-23T01:10:13.927Z,73119
2017-02-23T01:10:24.112Z,73137
2017-02-23T01:10:34.268Z,73142
2017-02-23T01:10:44.796Z,73124
2017-02-23T01:10:55.360Z,73125
2017-02-23T01:11:05.917Z,73124
2017-02-23T01:11:16.095Z,73109
2017-02-23T01:11:26.618Z,73117
2017-02-23T01:11:37.164Z,73133
2017-02-23T01:11:47.348Z,73137
2017-02-23T01:11:57.895Z,73141
2017-02-23T01:12:07.680Z,73132
2017-02-23T01:12:18.227Z,73141
2017-02-23T01:12:28.785Z,73150
2017-02-23T01:12:39.317Z,73163
2017-02-23T01:12:49.872Z,73142
2017-02-23T01:13:00.425Z,73150
2017-02-23T01:13:10.955Z,73137
2017-02-23T01:13:21.514Z,73139
2017-02-23T01:13:32.091Z,73130
2017-02-23T01:13:42.291Z,73125
2017-02-23T01:13:52.843Z,73109
2017-02-23T01:14:03.017Z,73121
2017-02-23T01:14:13.184Z,73121
2017-02-23T01:14:23.745Z,73116
2017-02-23T01:14:34.281Z,73105
2017-02-23T01:14:44.861Z,73108
2017-02-23T01:14:55.424Z,73132
2017-02-23T01:15:05.947Z,73144
2017-02-23T01:15:16.500Z,73158
2017-02-23T01:15:26.700Z,73155
2017-02-23T01:15:37.233Z,73161
2017-02-23T01:15:47.405Z,73155
2017-02-23T01:15:57.930Z,73158
2017-02-23T01:16:08.482Z,73160
2017-02-23T01:16:19.058Z,73140
2017-02-23T01:16:29.596Z,73134
2017-02-23T01:16:40.138Z,73141
2017-02-23T01:16:50.312Z,73130
2017-02-23T01:17:00.482Z,73116
2017-02-23T01:17:11.066Z,73123
2017-02-23T01:17:21.236Z,73133
2017-02-23T01:17:31.776Z,73121
2017-02-23T01:17:42.335Z,73116
2017-02-23T01:17:52.513Z,73122
2017-02-23T01:18:03.056Z,73124
2017-02-23T01:18:12.858Z,73107
2017-02-23T01:18:23.414Z,73106
2017-02-23T01:18:33.970Z,73095
2017-02-23T01:18:44.157Z,73100
2017-02-23T01:18:54.346Z,73118
2017-02-23T01:19:04.899Z,73123
2017-02-23T01:19:15.445Z,73103
2017-02-23T01:19:25.975Z,73093
2017-02-23T01:19:36.530Z,73106
2017-02-23T01:19:46.703Z,73123
2017-02-23T01:19:57.243Z,73117
2017-02-23T01:20:07.816Z,73125
2017-02-23T01:20:17.267Z,73135
2017-02-23T01:20:27.789Z,73134
2017-02-23T01:20:38.355Z,73144
2017-02-23T01:20:48.526Z,73146
2017-02-23T01:20:59.097Z,73126
2017-02-23T01:21:09.660Z,73089
2017-02-23T01:21:19.832Z,73099
2017-02-23T01:21:30.356Z,73113
2017-02-23T01:21:40.912Z,73121
2017-02-23T01:21:51.460Z,73113
2017-02-23T01:22:01.985Z,73122
2017-02-23T01:22:12.529Z,73122
2017-02-23T01:22:23.054Z,73121
2017-02-23T01:22:33.617Z,73124
2017-02-23T01:22:44.143Z,73115
2017-02-23T01:22:54.342Z,73112
2017-02-23T01:23:04.892Z,73106
2017-02-23T01:23:15.462Z,73105
2017-02-23T01:23:26.005Z,73106
2017-02-23T01:23:36.572Z,73110
2017-02-23T01:23:46.762Z,73115
2017-02-23T01:23:57.312Z,73112
2017-02-23T01:24:07.492Z,73105
2017-02-23T01:24:18.101Z,73098
2017-02-23T01:24:28.633Z,73090
2017-02-23T01:24:39.209Z,73093
2017-02-23T01:24:49.775Z,73101
2017-02-23T01:25:00.335Z,73104
2017-02-23T01:25:10.559Z,73116
2017-02-23T01:25:20.745Z,73119
2017-02-23T01:25:31.277Z,73118
2017-02-23T01:25:41.859Z,73119
2017-02-23T01:25:52.425Z,73102
2017-02-23T01:26:02.969Z,73114
2017-02-23T01:26:13.147Z,73106
2017-02-23T01:26:23.708Z,73099
2017-02-23T01:26:34.245Z,73096
2017-02-23T01:26:44.788Z,73103
2017-02-23T01:26:55.341Z,73119
2017-02-23T01:27:05.555Z,73122
2017-02-23T01:27:16.088Z,73123
2017-02-23T01:27:26.629Z,73133
2017-02-23T01:27:37.194Z,73134
2017-02-23T01:27:47.789Z,73123
2017-02-23T01:27:57.952Z,73115
2017-02-23T01:28:08.133Z,73125
2017-02-23T01:28:18.713Z,73124
2017-02-23T01:28:29.266Z,73122
2017-02-23T01:28:39.821Z,73123
2017-02-23T01:28:50.370Z,73108
2017-02-23T01:29:00.251Z,73126
2017-02-23T01:29:10.810Z,73097
2017-02-23T01:29:20.967Z,73094
2017-02-23T01:29:31.511Z,73109
2017-02-23T01:29:42.060Z,73101
2017-02-23T01:29:52.598Z,73098
2017-02-23T01:30:03.156Z,73105
2017-02-23T01:30:13.329Z,73111
2017-02-23T01:30:23.844Z,73115
2017-02-23T01:30:34.380Z,73124
2017-02-23T01:30:44.921Z,73121
2017-02-23T01:30:55.495Z,73117
2017-02-23T01:31:06.052Z,73107
2017-02-23T01:31:15.832Z,73094
2017-02-23T01:31:26.388Z,73086
2017-02-23T01:31:36.924Z,73090
2017-02-23T01:31:47.474Z,73105
2017-02-23T01:31:58.029Z,73099
2017-02-23T01:32:08.560Z,73102
2017-02-23T01:32:18.724Z,73111
2017-02-23T01:32:29.264Z,73120
2017-02-23T01:32:39.798Z,73125
2017-02-23T01:32:50.354Z,73142
2017-02-23T01:33:00.556Z,73136
2017-02-23T01:33:11.108Z,73120
2017-02-23T01:33:21.639Z,73106
2017-02-23T01:33:31.799Z,73100
2017-02-23T01:33:42.358Z,73082
2017-02-23T01:33:52.899Z,73081
2017-02-23T01:34:03.134Z,73088
2017-02-23T01:34:13.673Z,73086
2017-02-23T01:34:23.858Z,73095
2017-02-23T01:34:34.393Z,73114
2017-02-23T01:34:44.939Z,73125
2017-02-23T01:34:55.496Z,73119
2017-02-23T01:35:05.294Z,73107
2017-02-23T01:35:15.871Z,73090
2017-02-23T01:35:26.403Z,73079
2017-02-23T01:35:36.956Z,73103
2017-02-23T01:35:47.496Z,73109
2017-02-23T01:35:58.019Z,73108
2017-02-23T01:36:08.562Z,73104
2017-02-23T01:36:19.140Z,73105
2017-02-23T01:36:29.308Z,73102
2017-02-23T01:36:39.875Z,73105
2017-02-23T01:36:50.428Z,73114
2017-02-23T01:37:00.966Z,73121
2017-02-23T01:37:11.522Z,73128
2017-02-23T01:37:22.071Z,73134
2017-02-23T01:37:32.648Z,73103
2017-02-23T01:37:43.186Z,73095
2017-02-23T01:37:53.754Z,73083
2017-02-23T01:38:03.958Z,73101
2017-02-23T01:38:13.734Z,73111
2017-02-23T01:38:24.305Z,73118
2017-02-23T01:38:34.832Z,73133
2017-02-23T01:38:45.380Z,73135
2017-02-23T01:38:55.922Z,73137
2017-02-23T01:39:06.472Z,73141
2017-02-23T01:39:17.046Z,73126
2017-02-23T01:39:27.589Z,73099
2017-02-23T01:39:38.123Z,73078
2017-02-23T01:39:48.670Z,73066
2017-02-23T01:39:59.224Z,73066
2017-02-23T01:40:09.764Z,73066
2017-02-23T01:40:20.314Z,73076
2017-02-23T01:40:30.870Z,73091
2017-02-23T01:40:41.447Z,73103
2017-02-23T01:40:51.614Z,73110
2017-02-23T01:41:02.181Z,73120
2017-02-23T01:41:12.743Z,73114
2017-02-23T01:41:23.285Z,73129
2017-02-23T01:41:33.842Z,73138
2017-02-23T01:41:44.371Z,73120
2017-02-23T01:41:54.933Z,73128
2017-02-23T01:42:05.465Z,73123
2017-02-23T01:42:15.613Z,73105
2017-02-23T01:42:26.182Z,73073
2017-02-23T01:42:36.755Z,73069
2017-02-23T01:42:47.309Z,73082
2017-02-23T01:42:57.875Z,73089
2017-02-23T01:43:08.404Z,73092
2017-02-23T01:43:18.569Z,73089
2017-02-23T01:43:29.139Z,73103
2017-02-23T01:43:39.674Z,73128
2017-02-23T01:43:49.847Z,73135
2017-02-23T01:44:00.403Z,73104
2017-02-23T01:44:10.582Z,73086
2017-02-23T01:44:20.763Z,73091
2017-02-23T01:44:31.297Z,73107
2017-02-23T01:44:41.849Z,73119
2017-02-23T01:44:52.384Z,73127
2017-02-23T01:45:02.948Z,73108
2017-02-23T01:45:13.133Z,73093
2017-02-23T01:45:23.707Z,73079
2017-02-23T01:45:34.268Z,73050
2017-02-23T01:45:44.837Z,73065
2017-02-23T01:45:55.397Z,73088
2017-02-23T01:46:05.975Z,73106
2017-02-23T01:46:16.551Z,73115
2017-02-23T01:46:26.714Z,73133
2017-02-23T01:46:37.327Z,73123
2017-02-23T01:46:47.533Z,73118
2017-02-23T01:46:58.117Z,73095
2017-02-23T01:47:08.675Z,73078
2017-02-23T01:47:19.215Z,73066
2017-02-23T01:47:29.769Z,73080
2017-02-23T01:47:40.285Z,73102
2017-02-23T01:47:50.461Z,73109
2017-02-23T01:48:00.639Z,73116
2017-02-23T01:48:11.193Z,73120
2017-02-23T01:48:21.352Z,73106
2017-02-23T01:48:31.495Z,73104
2017-02-23T01:48:42.046Z,73115
2017-02-23T01:48:52.244Z,73119
2017-02-23T01:49:02.786Z,73117
2017-02-23T01:49:13.356Z,73124
2017-02-23T01:49:23.539Z,73129
2017-02-23T01:49:34.082Z,73112
2017-02-23T01:49:44.297Z,73085
2017-02-23T01:49:54.862Z,73081
2017-02-23T01:50:05.421Z,73068
2017-02-23T01:50:15.622Z,73066
2017-02-23T01:50:26.195Z,73081
2017-02-23T01:50:36.726Z,73097
2017-02-23T01:50:46.893Z,73087
2017-02-23T01:50:57.481Z,73083
2017-02-23T01:51:08.030Z,73070
2017-02-23T01:51:18.575Z,73081
2017-02-23T01:51:29.090Z,73087
2017-02-23T01:51:39.644Z,73092
2017-02-23T01:51:49.819Z,73101
2017-02-23T01:52:00.346Z,73105
2017-02-23T01:52:10.518Z,73100
2017-02-23T01:52:20.675Z,73084
2017-02-23T01:52:31.201Z,73066
2017-02-23T01:52:41.733Z,73091
2017-02-23T01:52:52.297Z,73099
2017-02-23T01:53:02.809Z,73116
2017-02-23T01:53:12.991Z,73094
2017-02-23T01:53:23.500Z,73080
2017-02-23T01:53:34.044Z,73080
2017-02-23T01:53:44.561Z,73099
2017-02-23T01:53:55.139Z,73115
2017-02-23T01:54:05.679Z,73115
2017-02-23T01:54:15.848Z,73116
2017-02-23T01:54:26.366Z,73106
2017-02-23T01:54:36.894Z,73094
2017-02-23T01:54:47.452Z,73079
2017-02-23T01:54:58.009Z,73075
2017-02-23T01:55:08.541Z,73092
2017-02-23T01:55:18.345Z,73102
2017-02-23T01:55:28.877Z,73111
2017-02-23T01:55:39.458Z,73118
2017-02-23T01:55:49.997Z,73126
2017-02-23T01:56:00.554Z,73145
2017-02-23T01:56:11.099Z,73144
2017-02-23T01:56:21.665Z,73118
2017-02-23T01:56:32.214Z,73092
2017-02-23T01:56:42.745Z,73089
2017-02-23T01:56:52.943Z,73104
2017-02-23T01:57:03.124Z,73109
2017-02-23T01:57:13.317Z,73107
2017-02-23T01:57:23.855Z,73107
2017-02-23T01:57:34.409Z,73125
2017-02-23T01:57:44.944Z,73119
2017-02-23T01:57:55.490Z,73112
2017-02-23T01:58:05.652Z,73111
2017-02-23T01:58:16.218Z,73111
2017-02-23T01:58:26.755Z,73115
2017-02-23T01:58:37.312Z,73107
2017-02-23T01:58:47.495Z,73106
2017-02-23T01:58:58.035Z,73106
2017-02-23T01:59:08.572Z,73121
2017-02-23T01:59:18.732Z,73108
2017-02-23T01:59:29.296Z,73089
2017-02-23T01:59:39.829Z,73089
2017-02-23T01:59:50.391Z,73082
2017-02-23T02:00:00.598Z,73085
2017-02-23T02:00:10.411Z,73105
2017-02-23T02:00:20.547Z,73085
2017-02-23T02:00:30.709Z,73089
2017-02-23T02:00:41.298Z,73102
2017-02-23T02:00:51.863Z,73104
2017-02-23T02:01:02.430Z,73098
2017-02-23T02:01:13.002Z,73096
2017-02-23T02:01:23.183Z,73094
2017-02-23T02:01:33.726Z,73102
2017-02-23T02:01:44.293Z,73083
2017-02-23T02:01:54.833Z,73066
2017-02-23T02:02:05.373Z,73076
2017-02-23T02:02:15.895Z,73094
2017-02-23T02:02:26.469Z,73111
2017-02-23T02:02:37.006Z,73104
2017-02-23T02:02:47.207Z,73102
2017-02-23T02:02:57.780Z,73089
2017-02-23T02:03:07.937Z,73091
2017-02-23T02:03:18.470Z,73084
2017-02-23T02:03:28.657Z,73075
2017-02-23T02:03:39.191Z,73078
2017-02-23T02:03:49.741Z,73100
2017-02-23T02:04:00.283Z,73111
2017-02-23T02:04:10.820Z,73110
2017-02-23T02:04:20.999Z,73110
2017-02-23T02:04:31.566Z,73102
2017-02-23T02:04:42.125Z,73096
2017-02-23T02:04:52.321Z,73099
2017-02-23T02:05:02.896Z,73109
2017-02-23T02:05:13.066Z,73102
2017-02-23T02:05:23.601Z,73079
2017-02-23T02:05:34.187Z,73080
2017-02-23T02:05:44.729Z,73082
2017-02-23T02:05:55.278Z,73100
2017-02-23T02:06:05.109Z,73125
2017-02-23T02:06:14.920Z,73115
2017-02-23T02:06:25.480Z,73096
2017-02-23T02:06:36.018Z,73104
2017-02-23T02:06:46.176Z,73076
2017-02-23T02:06:56.723Z,73069
2017-02-23T02:07:07.278Z,73072
2017-02-23T02:07:17.477Z,73079
2017-02-23T02:07:28.040Z,73088
2017-02-23T02:07:38.632Z,73089
2017-02-23T02:07:49.204Z,73085
2017-02-23T02:07:59.773Z,73083
2017-02-23T02:08:10.324Z,73085
2017-02-23T02:08:20.537Z,73092
2017-02-23T02:08:31.093Z,73083
2017-02-23T02:08:41.633Z,73095
2017-02-23T02:08:51.820Z,73103
2017-02-23T02:09:02.349Z,73101
2017-02-23T02:09:12.899Z,73111
2017-02-23T02:09:23.060Z,73118
2017-02-23T02:09:33.624Z,73110
2017-02-23T02:09:44.170Z,73106
2017-02-23T02:09:54.331Z,73116
2017-02-23T02:10:04.867Z,73119
2017-02-23T02:10:15.045Z,73111
2017-02-23T02:10:25.630Z,73095
2017-02-23T02:10:35.803Z,73090
2017-02-23T02:10:45.953Z,73090
2017-02-23T02:10:56.518Z,73109
2017-02-23T02:11:07.038Z,73129
2017-02-23T02:11:17.594Z,73100
2017-02-23T02:11:28.168Z,73047
2017-02-23T02:11:38.695Z,73060
2017-02-23T02:11:49.249Z,73066
2017-02-23T02:11:59.859Z,73069
2017-02-23T02:12:10.396Z,73061
2017-02-23T02:12:20.598Z,73046
2017-02-23T02:12:31.115Z,73076
2017-02-23T02:12:41.671Z,73095
2017-02-23T02:12:52.231Z,73099
2017-02-23T02:13:02.397Z,73105
2017-02-23T02:13:12.972Z,73096
2017-02-23T02:13:23.148Z,73079
2017-02-23T02:13:33.687Z,73062
2017-02-23T02:13:43.850Z,73073
2017-02-23T02:13:54.430Z,73087
2017-02-23T02:14:05.000Z,73097
2017-02-23T02:14:15.180Z,73107